Time;durP1;ratioP1;P1;durP2;ratioP2;P2;SDS_P1;SDS_P2;PMS_P1;PMS_P2;Temp;Humidity;BMP_temperature;BMP_pressure;BME280_temperature;BME280_humidity;BME280_pressure;Samples;Min_cycle;Max_cycle;Signal;HPM_P1;HPM_P2
2021/12/07 00:01:38;;;;;;;53.00;31.33;;;;;;;;;;6212006;28;20180;-67
2021/12/07 00:04:41;;;;;;;55.58;31.33;;;;;;;;;;6229597;28;20179;-67
2021/12/07 00:07:43;;;;;;;51.78;31.02;;;;;;;;;;6224036;28;20378;-67
2021/12/07 00:10:48;;;;;;;51.70;30.52;;;;;;;;;;6227970;28;20052;-67
2021/12/07 00:13:50;;;;;;;54.13;30.33;;;;;;;;;;6232163;28;20045;-67
2021/12/07 00:16:54;;;;;;;52.10;30.50;;;;;;;;;;6210988;28;20099;-67
2021/12/07 00:19:56;;;;;;;52.92;30.58;;;;;;;;;;6222038;28;20515;-67
2021/12/07 00:23:01;;;;;;;56.08;31.25;;;;;;;;;;6219562;28;20177;-67
2021/12/07 00:26:03;;;;;;;52.72;30.42;;;;;;;;;;6221046;28;20202;-67
2021/12/07 00:29:06;;;;;;;52.00;30.10;;;;;;;;;;6233809;28;20137;-67
2021/12/07 00:32:23;;;;;;;51.45;30.90;;;;;;;;;;6217796;28;20145;-67
2021/12/07 00:35:34;;;;;;;51.33;29.90;;;;;;;;;;6215876;28;20037;-67
2021/12/07 00:38:35;;;;;;;52.45;29.77;;;;;;;;;;6235138;28;20064;-66
2021/12/07 00:41:37;;;;;;;46.03;27.77;;;;;;;;;;6218822;28;20042;-67
2021/12/07 00:44:38;;;;;;;41.90;25.42;;;;;;;;;;6237530;28;20132;-67
2021/12/07 00:47:42;;;;;;;43.80;26.77;;;;;;;;;;6215737;28;20493;-67
2021/12/07 00:50:46;;;;;;;49.25;25.40;;;;;;;;;;6219743;28;20041;-67
2021/12/07 00:53:48;;;;;;;46.85;26.42;;;;;;;;;;6236878;28;20045;-67
2021/12/07 00:56:49;;;;;;;46.17;25.67;;;;;;;;;;6230435;28;20113;-67
2021/12/07 00:59:51;;;;;;;44.60;25.40;;;;;;;;;;6240566;28;20121;-67
2021/12/07 01:02:54;;;;;;;40.78;24.38;;;;;;;;;;6211110;28;20125;-67
2021/12/07 01:06:06;;;;;;;38.13;23.40;;;;;;;;;;6212514;28;20048;-67
2021/12/07 01:09:16;;;;;;;38.70;23.80;;;;;;;;;;6226483;28;20464;-67
2021/12/07 01:25:37;;;;;;;37.38;21.40;;;;;;;;;;6210113;28;20050;-66
2021/12/07 01:28:42;;;;;;;;;;;;;;;;;;6233295;28;20049;-66
2021/12/07 01:31:53;;;;;;;30.08;19.35;;;;;;;;;;6212909;28;19936;-66
2021/12/07 01:35:35;;;;;;;31.60;20.10;;;;;;;;;;6233003;28;20049;-65
2021/12/07 01:45:51;;;;;;;33.83;18.40;;;;;;;;;;6222067;28;20132;-65
2021/12/07 01:52:38;;;;;;;30.48;18.13;;;;;;;;;;6224098;28;20113;-65
2021/12/07 02:02:20;;;;;;;32.47;18.85;;;;;;;;;;6214496;28;20054;-66
2021/12/07 02:05:22;;;;;;;27.10;17.13;;;;;;;;;;6222137;28;20046;-66
2021/12/07 02:08:25;;;;;;;25.15;15.52;;;;;;;;;;6228462;28;20141;-67
2021/12/07 02:11:27;;;;;;;24.93;16.10;;;;;;;;;;6222398;28;20132;-66
2021/12/07 02:14:30;;;;;;;24.73;15.45;;;;;;;;;;6229065;28;20064;-67
2021/12/07 02:17:33;;;;;;;25.88;15.88;;;;;;;;;;6210268;28;20088;-66
2021/12/07 02:20:35;;;;;;;34.33;18.97;;;;;;;;;;6199515;28;20249;-66
2021/12/07 02:23:38;;;;;;;32.72;19.65;;;;;;;;;;6234522;28;20049;-65
2021/12/07 02:26:39;;;;;;;33.92;19.83;;;;;;;;;;6222553;28;20136;-66
2021/12/07 02:29:41;;;;;;;40.55;23.48;;;;;;;;;;6236336;28;20183;-66
2021/12/07 02:32:43;;;;;;;42.97;25.65;;;;;;;;;;6209214;28;20187;-65
2021/12/07 02:35:44;;;;;;;46.28;27.30;;;;;;;;;;6220789;28;20123;-66
2021/12/07 02:38:47;;;;;;;45.47;27.27;;;;;;;;;;6223254;28;20067;-66
2021/12/07 02:41:50;;;;;;;44.75;26.38;;;;;;;;;;6212534;28;20038;-66
2021/12/07 02:44:52;;;;;;;47.75;27.98;;;;;;;;;;6234076;28;20049;-66
2021/12/07 02:47:54;;;;;;;47.53;27.77;;;;;;;;;;6205902;28;20184;-66
2021/12/07 02:50:56;;;;;;;45.53;28.23;;;;;;;;;;6223728;28;20045;-66
2021/12/07 02:53:59;;;;;;;50.58;29.33;;;;;;;;;;6230063;28;20049;-66
2021/12/07 02:57:01;;;;;;;48.83;30.25;;;;;;;;;;6221240;28;20188;-66
2021/12/07 03:00:10;;;;;;;50.38;29.80;;;;;;;;;;6226327;28;20068;-66
2021/12/07 03:03:13;;;;;;;49.30;29.70;;;;;;;;;;6221794;28;20057;-66
2021/12/07 03:06:21;;;;;;;37.92;22.08;;;;;;;;;;6214568;28;20118;-66
2021/12/07 03:26:07;;;;;;;110.05;67.05;;;;;;;;;;6211923;28;20041;-66
2021/12/07 03:29:09;;;;;;;98.57;61.78;;;;;;;;;;6228877;28;20053;-66
2021/12/07 03:32:11;;;;;;;88.32;51.47;;;;;;;;;;6209988;28;20050;-65
2021/12/07 03:35:13;;;;;;;70.45;43.78;;;;;;;;;;6218811;28;20183;-66
2021/12/07 03:38:15;;;;;;;75.03;41.65;;;;;;;;;;6223588;28;20128;-65
2021/12/07 03:41:19;;;;;;;63.10;36.28;;;;;;;;;;6212006;28;20056;-66
2021/12/07 03:44:21;;;;;;;60.78;36.42;;;;;;;;;;6233308;28;20049;-66
2021/12/07 03:47:22;;;;;;;56.67;34.00;;;;;;;;;;6207859;28;20133;-66
2021/12/07 03:50:25;;;;;;;57.70;35.40;;;;;;;;;;6221236;28;20206;-66
2021/12/07 03:53:27;;;;;;;60.17;36.30;;;;;;;;;;6224357;28;22957;-66
2021/12/07 03:56:31;;;;;;;60.22;34.30;;;;;;;;;;6218525;28;20049;-66
2021/12/07 03:59:32;;;;;;;73.97;42.78;;;;;;;;;;6231650;28;20099;-66
2021/12/07 04:02:39;;;;;;;67.72;36.97;;;;;;;;;;6211371;28;20129;-66
2021/12/07 04:05:47;;;;;;;64.75;40.25;;;;;;;;;;6220423;28;20037;-66
2021/12/07 04:08:49;;;;;;;72.68;41.10;;;;;;;;;;6232800;28;20049;-66
2021/12/07 04:11:52;;;;;;;66.25;38.60;;;;;;;;;;6222970;28;20045;-66
2021/12/07 04:14:53;;;;;;;62.63;37.85;;;;;;;;;;6231011;28;20065;-66
2021/12/07 04:17:55;;;;;;;55.30;35.08;;;;;;;;;;6212484;28;20037;-65
2021/12/07 04:20:57;;;;;;;57.55;33.50;;;;;;;;;;6224627;28;20053;-66
2021/12/07 04:23:59;;;;;;;50.88;30.27;;;;;;;;;;6231024;28;20057;-65
2021/12/07 04:27:02;;;;;;;51.08;31.02;;;;;;;;;;6217308;28;20052;-65
2021/12/07 04:30:05;;;;;;;58.55;35.63;;;;;;;;;;6231940;28;20049;-66
2021/12/07 04:33:10;;;;;;;53.92;31.67;;;;;;;;;;6212661;28;20200;-66
2021/12/07 04:36:11;;;;;;;;;;;;;;;;;;6217636;28;20052;-66
2021/12/07 04:39:13;;;;;;;51.08;27.98;;;;;;;;;;6238332;28;19921;-66
2021/12/07 04:42:16;;;;;;;49.90;27.95;;;;;;;;;;6219376;28;20053;-66
2021/12/07 04:45:28;;;;;;;51.55;29.00;;;;;;;;;;6222988;28;20057;-66
2021/12/07 04:58:32;;;;;;;48.03;28.30;;;;;;;;;;6240424;28;20065;-66
2021/12/07 05:01:34;;;;;;;47.22;27.48;;;;;;;;;;6217743;28;20126;-66
2021/12/07 05:04:37;;;;;;;44.75;27.27;;;;;;;;;;6225359;28;20053;-66
2021/12/07 05:07:43;;;;;;;51.63;28.80;;;;;;;;;;6218153;28;20133;-66
2021/12/07 05:11:12;;;;;;;47.35;29.02;;;;;;;;;;6228462;28;20045;-66
2021/12/07 05:14:18;;;;;;;46.55;26.85;;;;;;;;;;6227900;28;20064;-66
2021/12/07 05:17:37;;;;;;;47.63;29.17;;;;;;;;;;6210397;28;20670;-66
2021/12/07 05:24:02;;;;;;;46.65;25.70;;;;;;;;;;6225074;28;20042;-66
2021/12/07 05:40:38;;;;;;;44.50;24.63;;;;;;;;;;6219844;28;20156;-66
2021/12/07 05:43:40;;;;;;;43.58;25.48;;;;;;;;;;6235368;28;20185;-65
2021/12/07 05:46:43;;;;;;;47.10;26.10;;;;;;;;;;6214241;28;20449;-66
2021/12/07 05:49:44;;;;;;;43.63;24.23;;;;;;;;;;6231887;28;20037;-66
2021/12/07 05:52:46;;;;;;;41.42;25.63;;;;;;;;;;6221052;28;20042;-66
2021/12/07 05:55:48;;;;;;;42.00;25.38;;;;;;;;;;6218290;28;20068;-66
2021/12/07 05:58:50;;;;;;;46.00;25.17;;;;;;;;;;6237019;28;20053;-66
2021/12/07 06:01:53;;;;;;;40.83;24.67;;;;;;;;;;6215506;28;20106;-66
2021/12/07 06:04:54;;;;;;;44.35;25.05;;;;;;;;;;6228285;28;20052;-66
2021/12/07 06:07:56;;;;;;;40.03;23.80;;;;;;;;;;6217465;28;20137;-65
2021/12/07 06:10:58;;;;;;;33.10;20.50;;;;;;;;;;6221799;28;20057;-65
2021/12/07 06:14:00;;;;;;;31.00;18.73;;;;;;;;;;6224691;28;20798;-66
2021/12/07 06:17:03;;;;;;;29.15;17.98;;;;;;;;;;6210634;28;20195;-65
2021/12/07 06:20:06;;;;;;;25.42;14.93;;;;;;;;;;6233620;28;20942;-66
2021/12/07 06:23:09;;;;;;;21.53;12.17;;;;;;;;;;6225834;28;20050;-65
2021/12/07 06:26:10;;;;;;;19.67;10.45;;;;;;;;;;6228791;28;20235;-65
2021/12/07 06:29:12;;;;;;;15.13;9.73;;;;;;;;;;6230259;28;20089;-65
2021/12/07 06:32:15;;;;;;;18.33;10.73;;;;;;;;;;6211052;28;20089;-66
2021/12/07 06:35:17;;;;;;;19.77;10.90;;;;;;;;;;6218128;28;20561;-66
2021/12/07 06:38:19;;;;;;;26.40;12.32;;;;;;;;;;6227799;28;20133;-66
2021/12/07 06:41:20;;;;;;;23.85;13.35;;;;;;;;;;6223026;28;20069;-65
2021/12/07 06:44:22;;;;;;;29.65;16.80;;;;;;;;;;6243726;28;20045;-66
2021/12/07 06:47:25;;;;;;;29.38;17.20;;;;;;;;;;6206311;28;20354;-66
2021/12/07 06:50:27;;;;;;;33.70;19.15;;;;;;;;;;6222852;28;20514;-66
2021/12/07 06:53:35;;;;;;;34.60;21.60;;;;;;;;;;6231296;28;20050;-66
2021/12/07 06:56:37;;;;;;;38.00;21.38;;;;;;;;;;6223824;28;20494;-66
2021/12/07 06:59:38;;;;;;;36.50;22.02;;;;;;;;;;6236161;28;20049;-66
2021/12/07 07:02:42;;;;;;;38.92;21.77;;;;;;;;;;6213209;28;20077;-66
2021/12/07 07:05:43;;;;;;;40.67;23.35;;;;;;;;;;6217091;28;20059;-66
2021/12/07 07:08:45;;;;;;;37.63;21.35;;;;;;;;;;6231401;28;20052;-66
2021/12/07 07:11:46;;;;;;;36.03;22.58;;;;;;;;;;6227836;28;20042;-66
2021/12/07 07:14:48;;;;;;;40.72;23.08;;;;;;;;;;6236637;28;20523;-66
2021/12/07 07:17:51;;;;;;;38.65;22.75;;;;;;;;;;6220436;28;20077;-66
2021/12/07 07:20:54;;;;;;;39.40;22.58;;;;;;;;;;6222218;28;20099;-66
2021/12/07 07:23:56;;;;;;;46.13;22.65;;;;;;;;;;6223658;28;20167;-66
2021/12/07 07:26:58;;;;;;;40.00;20.98;;;;;;;;;;6217403;28;20168;-66
2021/12/07 07:29:59;;;;;;;36.58;20.25;;;;;;;;;;6224822;28;20049;-66
2021/12/07 07:33:02;;;;;;;34.10;20.30;;;;;;;;;;6215023;28;20140;-66
2021/12/07 07:36:05;;;;;;;36.17;21.42;;;;;;;;;;6221666;28;20632;-66
2021/12/07 07:39:07;;;;;;;36.53;23.08;;;;;;;;;;6228763;28;20909;-65
2021/12/07 07:42:09;;;;;;;43.75;21.75;;;;;;;;;;6222953;28;20129;-66
2021/12/07 07:45:11;;;;;;;38.65;22.15;;;;;;;;;;6221343;28;20391;-66
2021/12/07 07:48:15;;;;;;;37.33;21.98;;;;;;;;;;6217401;28;20195;-66
2021/12/07 07:51:16;;;;;;;37.25;20.23;;;;;;;;;;6216036;28;20056;-66
2021/12/07 07:54:18;;;;;;;37.90;20.92;;;;;;;;;;6230946;28;20168;-66
2021/12/07 07:57:20;;;;;;;35.88;19.98;;;;;;;;;;6218831;28;20053;-66
2021/12/07 08:00:22;;;;;;;33.83;18.77;;;;;;;;;;6221863;28;20050;-66
2021/12/07 08:03:25;;;;;;;36.70;21.20;;;;;;;;;;6225999;28;20045;-66
2021/12/07 08:06:26;;;;;;;36.30;20.55;;;;;;;;;;6230564;28;20110;-67
2021/12/07 08:09:28;;;;;;;35.50;18.70;;;;;;;;;;6230763;28;20697;-66
2021/12/07 08:12:30;;;;;;;32.30;19.85;;;;;;;;;;6218758;28;20552;-66
2021/12/07 08:15:34;;;;;;;32.53;19.35;;;;;;;;;;6216431;28;20965;-66
2021/12/07 08:18:37;;;;;;;32.40;17.50;;;;;;;;;;6222549;28;20492;-66
2021/12/07 08:21:38;;;;;;;26.50;15.98;;;;;;;;;;6213791;28;20054;-66
2021/12/07 08:24:40;;;;;;;26.83;15.18;;;;;;;;;;6233150;28;20180;-67
2021/12/07 08:27:42;;;;;;;21.63;13.10;;;;;;;;;;6215259;28;20926;-67
2021/12/07 08:30:44;;;;;;;27.98;13.85;;;;;;;;;;6214351;28;20128;-68
2021/12/07 08:33:47;;;;;;;18.70;12.93;;;;;;;;;;6224637;28;20192;-68
2021/12/07 08:36:48;;;;;;;19.35;12.27;;;;;;;;;;6220098;28;20068;-69
2021/12/07 08:39:50;;;;;;;22.13;12.73;;;;;;;;;;6229538;28;20569;-68
2021/12/07 08:42:52;;;;;;;21.15;12.73;;;;;;;;;;6221917;28;20053;-68
2021/12/07 08:45:55;;;;;;;18.67;11.70;;;;;;;;;;6212650;28;20069;-68
2021/12/07 08:48:58;;;;;;;20.80;12.27;;;;;;;;;;6227019;28;20049;-67
2021/12/07 08:52:00;;;;;;;18.67;11.30;;;;;;;;;;6216348;28;20050;-68
2021/12/07 09:01:40;;;;;;;17.85;11.07;;;;;;;;;;6208529;28;20369;-68
2021/12/07 09:04:44;;;;;;;13.98;9.40;;;;;;;;;;6229264;28;20042;-68
2021/12/07 09:07:45;;;;;;;12.00;7.93;;;;;;;;;;6218685;28;20046;-68
2021/12/07 09:10:47;;;;;;;13.82;8.90;;;;;;;;;;6222541;28;20901;-68
2021/12/07 09:13:49;;;;;;;10.98;8.00;;;;;;;;;;6227248;28;20244;-68
2021/12/07 09:16:51;;;;;;;14.30;8.63;;;;;;;;;;6213257;28;20478;-68
2021/12/07 09:19:54;;;;;;;12.27;8.15;;;;;;;;;;6229652;28;20041;-68
2021/12/07 09:22:55;;;;;;;11.88;8.27;;;;;;;;;;6212387;28;20079;-66
2021/12/07 09:25:57;;;;;;;10.75;8.02;;;;;;;;;;6221871;28;20098;-66
2021/12/07 09:28:59;;;;;;;13.30;7.75;;;;;;;;;;6225798;28;20099;-66
2021/12/07 09:32:00;;;;;;;11.68;7.90;;;;;;;;;;6208444;28;22331;-65
2021/12/07 09:35:06;;;;;;;12.45;6.78;;;;;;;;;;6227002;28;20057;-66
2021/12/07 09:38:09;;;;;;;12.43;6.47;;;;;;;;;;6223473;28;20037;-65
2021/12/07 09:41:11;;;;;;;9.30;6.88;;;;;;;;;;6219364;28;20049;-65
2021/12/07 09:44:13;;;;;;;11.18;8.18;;;;;;;;;;6223773;28;20060;-65
2021/12/07 09:47:15;;;;;;;12.60;7.97;;;;;;;;;;6198917;28;20049;-66
2021/12/07 09:50:20;;;;;;;11.73;7.72;;;;;;;;;;6216080;28;20130;-66
2021/12/07 09:53:24;;;;;;;15.15;7.40;;;;;;;;;;6219773;28;20115;-66
2021/12/07 09:56:25;;;;;;;;;;;;;;;;;;6218149;28;20106;-68
2021/12/07 09:59:29;;;;;;;10.68;7.40;;;;;;;;;;6215441;28;20047;-66
2021/12/07 10:02:30;;;;;;;12.48;7.60;;;;;;;;;;6212226;28;20457;-69
2021/12/07 10:05:35;;;;;;;11.93;7.53;;;;;;;;;;6207868;28;20041;-69
2021/12/07 10:08:37;;;;;;;14.35;8.50;;;;;;;;;;6185325;28;20042;-68
2021/12/07 10:11:39;;;;;;;11.75;7.80;;;;;;;;;;6226698;28;20245;-69
2021/12/07 10:14:43;;;;;;;13.55;8.35;;;;;;;;;;6235283;28;20183;-65
2021/12/07 10:17:59;;;;;;;18.38;8.38;;;;;;;;;;6215589;28;20083;-65
2021/12/07 10:21:05;;;;;;;11.35;7.70;;;;;;;;;;6215353;28;20046;-65
2021/12/07 10:24:10;;;;;;;11.10;8.32;;;;;;;;;;6220951;28;20053;-65
2021/12/07 10:27:11;;;;;;;16.88;8.75;;;;;;;;;;6224410;28;20041;-65
2021/12/07 10:30:19;;;;;;;12.40;8.35;;;;;;;;;;6225778;28;20052;-66
2021/12/07 10:33:29;;;;;;;11.57;7.60;;;;;;;;;;6221779;28;20450;-66
2021/12/07 10:36:36;;;;;;;8.88;7.28;;;;;;;;;;6232187;28;20041;-65
2021/12/07 10:39:40;;;;;;;9.82;7.07;;;;;;;;;;6235505;28;20146;-65
2021/12/07 10:42:42;;;;;;;10.07;7.13;;;;;;;;;;6218431;28;20136;-66
2021/12/07 10:45:44;;;;;;;12.80;6.28;;;;;;;;;;6225919;28;20140;-66
2021/12/07 10:48:45;;;;;;;11.23;6.15;;;;;;;;;;6237636;28;20050;-65
2021/12/07 10:52:16;;;;;;;10.55;5.35;;;;;;;;;;6231614;28;20068;-65
2021/12/07 10:55:20;;;;;;;13.20;6.20;;;;;;;;;;6228993;28;20053;-66
2021/12/07 10:58:30;;;;;;;9.65;6.72;;;;;;;;;;6241293;28;20128;-65
2021/12/07 11:01:33;;;;;;;11.95;6.38;;;;;;;;;;6215876;28;20052;-66
2021/12/07 11:04:35;;;;;;;10.70;5.53;;;;;;;;;;6242109;28;20136;-65
2021/12/07 11:07:38;;;;;;;11.88;5.68;;;;;;;;;;6235749;28;20049;-65
2021/12/07 11:10:43;;;;;;;15.68;6.00;;;;;;;;;;6231051;28;20565;-66
2021/12/07 11:13:52;;;;;;;8.27;4.95;;;;;;;;;;6232410;28;20060;-65
2021/12/07 11:16:54;;;;;;;11.95;6.00;;;;;;;;;;6219152;28;20512;-65
2021/12/07 11:19:56;;;;;;;11.82;6.32;;;;;;;;;;6242723;28;20138;-66
2021/12/07 11:23:04;;;;;;;11.85;6.57;;;;;;;;;;6230881;28;20451;-65
2021/12/07 11:29:40;;;;;;;9.50;5.70;;;;;;;;;;6234768;28;20050;-65
2021/12/07 11:32:44;;;;;;;16.63;10.55;;;;;;;;;;6215032;28;20049;-65
2021/12/07 11:35:45;;;;;;;17.85;10.80;;;;;;;;;;6233452;28;20056;-65
2021/12/07 11:38:48;;;;;;;17.52;10.52;;;;;;;;;;6237572;28;20180;-65
2021/12/07 11:41:53;;;;;;;15.80;11.45;;;;;;;;;;6225027;28;20140;-65
2021/12/07 11:44:57;;;;;;;15.60;10.75;;;;;;;;;;6249126;28;20449;-65
2021/12/07 11:48:01;;;;;;;13.43;10.05;;;;;;;;;;6226432;28;20510;-65
2021/12/07 11:51:02;;;;;;;12.63;10.25;;;;;;;;;;6225967;28;20111;-65
2021/12/07 11:54:06;;;;;;;14.60;9.35;;;;;;;;;;6238777;28;20049;-65
2021/12/07 11:57:09;;;;;;;14.85;11.10;;;;;;;;;;6226711;28;20508;-65
2021/12/07 12:00:15;;;;;;;16.63;10.13;;;;;;;;;;6232437;28;20081;-66
2021/12/07 12:03:19;;;;;;;13.30;9.73;;;;;;;;;;6225359;28;20074;-68
2021/12/07 12:06:20;;;;;;;12.55;9.15;;;;;;;;;;6220025;28;20049;-67
2021/12/07 12:09:24;;;;;;;15.77;9.80;;;;;;;;;;6233925;28;20149;-65
2021/12/07 12:12:33;;;;;;;15.85;9.57;;;;;;;;;;6220872;28;20049;-66
2021/12/07 12:15:54;;;;;;;14.05;9.77;;;;;;;;;;6189189;28;20493;-66
2021/12/07 12:19:00;;;;;;;13.45;10.80;;;;;;;;;;6226572;28;20041;-65
2021/12/07 12:22:08;;;;;;;14.25;9.50;;;;;;;;;;6224076;28;20238;-65
2021/12/07 12:25:13;;;;;;;16.00;8.45;;;;;;;;;;6220581;28;20103;-65
2021/12/07 12:28:25;;;;;;;12.63;8.30;;;;;;;;;;6212754;28;20045;-66
2021/12/07 12:31:44;;;;;;;12.00;8.63;;;;;;;;;;6207909;28;20052;-66
2021/12/07 12:34:49;;;;;;;10.68;7.65;;;;;;;;;;6236733;28;20063;-65
2021/12/07 12:37:50;;;;;;;12.95;8.13;;;;;;;;;;6228081;28;20526;-65
2021/12/07 12:40:57;;;;;;;15.55;9.05;;;;;;;;;;6230715;28;20132;-65
2021/12/07 12:44:06;;;;;;;13.00;8.88;;;;;;;;;;6226358;28;20196;-65
2021/12/07 12:47:08;;;;;;;14.13;8.82;;;;;;;;;;6223171;28;20551;-65
2021/12/07 12:50:14;;;;;;;12.65;8.50;;;;;;;;;;6219001;28;20081;-66
2021/12/07 12:53:18;;;;;;;12.85;8.77;;;;;;;;;;6228864;28;20103;-65
2021/12/07 12:56:24;;;;;;;12.45;8.35;;;;;;;;;;6220125;28;21232;-65
2021/12/07 12:59:28;;;;;;;12.80;8.63;;;;;;;;;;6234941;28;20049;-64
2021/12/07 13:02:30;;;;;;;12.23;7.65;;;;;;;;;;6207968;28;20045;-64
2021/12/07 13:05:34;;;;;;;12.90;7.80;;;;;;;;;;6220650;28;20122;-64
2021/12/07 13:08:52;;;;;;;10.55;6.80;;;;;;;;;;6226857;28;20083;-64
2021/12/07 13:11:56;;;;;;;13.25;8.02;;;;;;;;;;6215119;28;20038;-64
2021/12/07 13:15:01;;;;;;;10.65;6.70;;;;;;;;;;6225279;28;20198;-64
2021/12/07 13:18:03;;;;;;;8.20;6.65;;;;;;;;;;6217155;28;20137;-64
2021/12/07 13:21:25;;;;;;;11.88;7.47;;;;;;;;;;6209455;28;20235;-65
2021/12/07 13:24:33;;;;;;;9.75;6.50;;;;;;;;;;6223363;28;20045;-64
2021/12/07 13:27:37;;;;;;;12.30;6.78;;;;;;;;;;6225542;28;20065;-64
2021/12/07 13:30:49;;;;;;;18.15;6.90;;;;;;;;;;6212987;28;20046;-64
2021/12/07 13:33:52;;;;;;;9.63;6.55;;;;;;;;;;6226419;28;20053;-64
2021/12/07 13:36:58;;;;;;;11.68;6.68;;;;;;;;;;6234249;28;20493;-65
2021/12/07 13:40:01;;;;;;;10.32;6.35;;;;;;;;;;6247600;28;20067;-65
2021/12/07 13:43:04;;;;;;;8.82;6.15;;;;;;;;;;6222419;28;20050;-64
2021/12/07 13:46:10;;;;;;;13.70;6.03;;;;;;;;;;6215868;28;20079;-65
2021/12/07 13:49:13;;;;;;;8.40;5.78;;;;;;;;;;6231443;28;20060;-65
2021/12/07 13:52:16;;;;;;;7.57;5.60;;;;;;;;;;6173547;28;20406;-64
2021/12/07 13:55:20;;;;;;;7.60;5.43;;;;;;;;;;6217524;28;20184;-65
2021/12/07 13:58:25;;;;;;;;;;;;;;;;;;6229897;28;20072;-65
2021/12/07 14:01:27;;;;;;;;;;;;;;;;;;6214279;28;19936;-64
2021/12/07 14:04:30;;;;;;;10.45;5.40;;;;;;;;;;6223051;28;19928;-65
2021/12/07 14:07:32;;;;;;;8.95;5.57;;;;;;;;;;6219601;28;20045;-65
2021/12/07 14:10:38;;;;;;;6.93;4.82;;;;;;;;;;6222689;28;20042;-65
2021/12/07 14:13:42;;;;;;;8.05;5.22;;;;;;;;;;6230426;28;20045;-64
2021/12/07 14:16:45;;;;;;;9.45;4.93;;;;;;;;;;6215409;28;20037;-64
2021/12/07 14:19:47;;;;;;;8.85;4.88;;;;;;;;;;6214141;28;20080;-64
2021/12/07 14:22:48;;;;;;;8.90;5.05;;;;;;;;;;6219799;28;20049;-65
2021/12/07 14:25:54;;;;;;;7.05;4.68;;;;;;;;;;6217533;28;20189;-65
2021/12/07 14:29:02;;;;;;;10.45;5.20;;;;;;;;;;6230926;28;20156;-65
2021/12/07 14:32:10;;;;;;;8.25;5.68;;;;;;;;;;6213456;28;20136;-65
2021/12/07 14:35:11;;;;;;;6.40;4.93;;;;;;;;;;6216398;28;20081;-65
2021/12/07 14:38:13;;;;;;;9.32;5.38;;;;;;;;;;6226346;28;20543;-64
2021/12/07 14:41:16;;;;;;;7.18;5.03;;;;;;;;;;6219952;28;20095;-65
2021/12/07 14:44:22;;;;;;;10.35;5.75;;;;;;;;;;6223194;28;20578;-64
2021/12/07 14:47:24;;;;;;;9.18;5.85;;;;;;;;;;6206931;28;20091;-65
2021/12/07 14:50:25;;;;;;;8.80;5.53;;;;;;;;;;6214703;28;20061;-65
2021/12/07 14:53:38;;;;;;;10.85;6.07;;;;;;;;;;6226174;28;20130;-65
2021/12/07 14:56:40;;;;;;;10.57;6.03;;;;;;;;;;6215395;28;20568;-65
2021/12/07 14:59:44;;;;;;;9.05;6.32;;;;;;;;;;6233417;28;20535;-65
2021/12/07 15:02:47;;;;;;;10.38;6.63;;;;;;;;;;6208278;28;20054;-65
2021/12/07 15:05:49;;;;;;;12.98;5.82;;;;;;;;;;6220370;28;20056;-65
2021/12/07 15:08:51;;;;;;;10.68;5.90;;;;;;;;;;6234092;28;20037;-67
2021/12/07 15:11:54;;;;;;;10.45;6.20;;;;;;;;;;6220538;28;20049;-66
2021/12/07 15:15:00;;;;;;;10.80;5.47;;;;;;;;;;6230093;28;20046;-66
2021/12/07 15:18:02;;;;;;;11.00;5.63;;;;;;;;;;6210296;28;20489;-66
2021/12/07 15:21:03;;;;;;;8.40;5.47;;;;;;;;;;6214960;28;20501;-66
2021/12/07 15:24:08;;;;;;;8.95;6.07;;;;;;;;;;6225302;28;20535;-66
2021/12/07 15:27:09;;;;;;;;;;;;;;;;;;6220032;28;20110;-66
2021/12/07 15:30:13;;;;;;;10.13;5.63;;;;;;;;;;6218524;28;19932;-66
2021/12/07 15:33:14;;;;;;;7.53;5.22;;;;;;;;;;6211323;28;20042;-66
2021/12/07 15:36:18;;;;;;;7.68;4.70;;;;;;;;;;6211486;28;20552;-66
2021/12/07 15:39:21;;;;;;;7.63;5.27;;;;;;;;;;6227754;28;20049;-66
2021/12/07 15:42:25;;;;;;;10.70;5.78;;;;;;;;;;6219801;28;20184;-66
2021/12/07 15:45:28;;;;;;;9.50;6.00;;;;;;;;;;6218875;28;20493;-67
2021/12/07 15:48:31;;;;;;;8.75;6.13;;;;;;;;;;6218888;28;20504;-66
2021/12/07 15:51:33;;;;;;;10.02;6.07;;;;;;;;;;6211623;28;20046;-66
2021/12/07 15:54:35;;;;;;;9.35;6.55;;;;;;;;;;6234199;28;20128;-66
2021/12/07 15:57:42;;;;;;;11.15;7.05;;;;;;;;;;6222011;28;20048;-66
2021/12/07 16:00:49;;;;;;;14.40;7.05;;;;;;;;;;6211685;28;20521;-66
2021/12/07 16:03:50;;;;;;;10.70;6.15;;;;;;;;;;6227006;28;20719;-66
2021/12/07 16:06:52;;;;;;;10.50;5.03;;;;;;;;;;6228921;28;20049;-66
2021/12/07 16:10:06;;;;;;;7.95;5.65;;;;;;;;;;6232396;28;20613;-66
2021/12/07 16:13:09;;;;;;;10.52;5.18;;;;;;;;;;6223753;28;20046;-66
2021/12/07 16:16:17;;;;;;;7.57;5.40;;;;;;;;;;6211002;28;20076;-66
2021/12/07 16:19:19;;;;;;;6.60;4.97;;;;;;;;;;6230713;28;20107;-66
2021/12/07 16:22:21;;;;;;;6.18;4.63;;;;;;;;;;6218024;28;20140;-66
2021/12/07 16:25:22;;;;;;;7.28;5.10;;;;;;;;;;6217560;28;20053;-66
2021/12/07 16:28:24;;;;;;;9.30;5.30;;;;;;;;;;6228179;28;20053;-66
2021/12/07 16:31:28;;;;;;;10.18;5.30;;;;;;;;;;6213042;28;20189;-66
2021/12/07 16:34:30;;;;;;;8.63;5.45;;;;;;;;;;6229822;28;20133;-67
2021/12/07 16:37:32;;;;;;;7.97;4.78;;;;;;;;;;6222686;28;20100;-66
2021/12/07 16:40:33;;;;;;;8.40;5.50;;;;;;;;;;6223663;28;20187;-66
2021/12/07 16:43:35;;;;;;;8.70;5.53;;;;;;;;;;6232449;28;20125;-66
2021/12/07 16:46:38;;;;;;;11.10;5.50;;;;;;;;;;6216242;28;20053;-66
2021/12/07 16:49:40;;;;;;;8.67;5.67;;;;;;;;;;6225464;28;20116;-66
2021/12/07 16:52:43;;;;;;;9.68;5.45;;;;;;;;;;6218192;28;20141;-66
2021/12/07 16:55:47;;;;;;;10.68;5.50;;;;;;;;;;6218024;28;20629;-66
2021/12/07 16:58:48;;;;;;;9.77;5.80;;;;;;;;;;6229185;28;20116;-66
2021/12/07 17:01:51;;;;;;;11.68;5.32;;;;;;;;;;6209450;28;20130;-66
2021/12/07 17:04:53;;;;;;;8.40;5.68;;;;;;;;;;6231428;28;20161;-65
2021/12/07 17:07:55;;;;;;;14.45;6.22;;;;;;;;;;6221333;28;20041;-65
2021/12/07 17:10:57;;;;;;;9.95;6.13;;;;;;;;;;6222776;28;20132;-66
2021/12/07 17:13:59;;;;;;;8.70;5.07;;;;;;;;;;6215650;28;20293;-65
2021/12/07 17:17:02;;;;;;;10.82;5.43;;;;;;;;;;6208443;28;20068;-66
2021/12/07 17:20:05;;;;;;;9.88;5.35;;;;;;;;;;6223231;28;20057;-66
2021/12/07 17:23:06;;;;;;;10.35;5.50;;;;;;;;;;6213958;28;21459;-65
2021/12/07 17:26:08;;;;;;;11.30;6.65;;;;;;;;;;6219057;28;20136;-66
2021/12/07 17:29:11;;;;;;;10.85;6.45;;;;;;;;;;6230895;28;20386;-66
2021/12/07 17:32:14;;;;;;;12.32;6.57;;;;;;;;;;6211416;28;20071;-65
2021/12/07 17:35:16;;;;;;;12.18;7.32;;;;;;;;;;6222949;28;20116;-66
2021/12/07 17:38:19;;;;;;;15.57;8.02;;;;;;;;;;6221207;28;20123;-65
2021/12/07 17:41:21;;;;;;;12.50;8.75;;;;;;;;;;6218793;28;20042;-66
2021/12/07 17:44:22;;;;;;;16.27;9.95;;;;;;;;;;6224954;28;20611;-65
2021/12/07 17:47:25;;;;;;;17.35;10.05;;;;;;;;;;6206034;28;20136;-65
2021/12/07 17:50:28;;;;;;;15.93;10.40;;;;;;;;;;6215819;28;20275;-65
2021/12/07 17:53:29;;;;;;;18.92;11.23;;;;;;;;;;6232437;28;20045;-65
2021/12/07 17:56:31;;;;;;;20.30;12.38;;;;;;;;;;6216730;28;20139;-66
2021/12/07 17:59:34;;;;;;;17.48;11.40;;;;;;;;;;6225740;28;20529;-65
2021/12/07 18:02:37;;;;;;;18.08;11.70;;;;;;;;;;6205184;28;20053;-66
2021/12/07 18:05:38;;;;;;;17.92;11.18;;;;;;;;;;6217756;28;20176;-65
2021/12/07 18:08:42;;;;;;;20.15;12.93;;;;;;;;;;6229072;28;20041;-66
2021/12/07 18:11:43;;;;;;;19.27;11.35;;;;;;;;;;6222405;28;20057;-66
2021/12/07 18:14:45;;;;;;;27.02;12.07;;;;;;;;;;6231588;28;20056;-65
2021/12/07 18:17:48;;;;;;;17.75;12.50;;;;;;;;;;6214766;28;20045;-66
2021/12/07 18:20:50;;;;;;;21.55;13.18;;;;;;;;;;6212491;28;20252;-65
2021/12/07 18:23:52;;;;;;;23.90;13.43;;;;;;;;;;6225491;28;20056;-66
2021/12/07 18:26:56;;;;;;;24.30;13.70;;;;;;;;;;6214254;28;20054;-66
2021/12/07 18:29:57;;;;;;;23.55;14.00;;;;;;;;;;6231588;28;20066;-65
2021/12/07 18:33:00;;;;;;;27.10;13.95;;;;;;;;;;6204912;28;20060;-65
2021/12/07 18:36:04;;;;;;;24.13;14.65;;;;;;;;;;6213774;28;20568;-66
2021/12/07 18:39:06;;;;;;;23.95;13.45;;;;;;;;;;6222863;28;20046;-65
2021/12/07 18:42:08;;;;;;;20.40;13.15;;;;;;;;;;6225004;28;20409;-65
2021/12/07 18:45:12;;;;;;;26.80;13.60;;;;;;;;;;6225737;28;20045;-66
2021/12/07 18:48:15;;;;;;;21.05;13.20;;;;;;;;;;6228489;28;20056;-65
2021/12/07 18:51:17;;;;;;;26.60;14.80;;;;;;;;;;6217141;28;20231;-65
2021/12/07 18:54:19;;;;;;;20.63;13.43;;;;;;;;;;6231444;28;20467;-65
2021/12/07 18:57:21;;;;;;;19.63;13.75;;;;;;;;;;6218929;28;20053;-65
2021/12/07 19:00:23;;;;;;;29.50;14.80;;;;;;;;;;6220656;28;20046;-65
2021/12/07 19:03:26;;;;;;;27.88;15.38;;;;;;;;;;6225375;28;20374;-65
2021/12/07 19:06:28;;;;;;;31.40;15.25;;;;;;;;;;6218089;28;20053;-65
2021/12/07 19:09:30;;;;;;;25.17;14.73;;;;;;;;;;6232219;28;20174;-65
2021/12/07 19:12:32;;;;;;;23.23;14.45;;;;;;;;;;6217856;28;20060;-65
2021/12/07 19:15:33;;;;;;;22.42;14.32;;;;;;;;;;6215236;28;20251;-66
2021/12/07 19:18:38;;;;;;;25.38;14.68;;;;;;;;;;6222447;28;20140;-65
2021/12/07 19:21:40;;;;;;;21.95;14.40;;;;;;;;;;6221426;28;20497;-65
2021/12/07 19:24:41;;;;;;;24.42;15.00;;;;;;;;;;6223825;28;20045;-64